Flight Track Log - Related Links

Times and Time Zones

All times are in EDT time to prevent confusion due to time zone crossing. See the DAL1283 flight status page for this flight to view local times or setup timezone preferences in your user account.

Time Position Orientation Groundspeed Altitude Reporting Facility
EDT Latitude Longitude Course Direction KTS MPH feet Rate Location/Type
Sun 06:49:15 PM 44.8247 -93.2283 120° Southeast 184 212 3,000  Level Minneapolis Center
Sun 06:50:17 PM 44.7481 -93.2156 173° South 250 288 6,500 3,194 Climbing Minneapolis Center
Sun 06:51:19 PM 44.6728 -93.2422 194° South 283 326 9,600 2,952 Climbing Minneapolis Center
Sun 06:52:21 PM 44.6156 -93.1550 133° Southeast 331 381 12,600 2,146 Climbing Minneapolis Center
Sun 06:53:00 PM 44.4103 -92.6180 120° Southeast  Level FlightAware Approximate
Sun 06:53:22 PM 44.5694 -93.0242 116° Southeast 385 443 14,000  Level Minneapolis Center
Sun 06:54:00 PM 44.3465 -92.4649 120° Southeast  Level FlightAware Approximate
Sun 06:54:24 PM 44.5069 -92.8514 117° Southeast 416 479 18,200  Level Minneapolis Center
Sun 06:55:26 PM 44.4564 -92.7167 118° Southeast 398 458 20,800 2,195 Climbing Minneapolis Center
Sun 06:56:27 PM 44.3972 -92.5792 121° Southeast 411 473 22,700 1,366 Climbing Minneapolis Center
Sun 06:57:29 PM 44.3322 -92.4294 121° Southeast 445 512 23,600 1,113 Climbing Minneapolis Center
Sun 06:58:31 PM 44.2633 -92.2700 121° Southeast 475 547 25,000 1,500 Climbing Minneapolis Center
Sun 06:59:33 PM 44.1922 -92.1075 121° Southeast 491 565 26,700 1,610 Climbing Minneapolis Center
Sun 07:00:34 PM 44.1197 -91.9453 122° Southeast 495 570 28,300 1,902 Climbing Minneapolis Center
Sun 07:01:36 PM 44.0344 -91.7492 121° Southeast 495 570 30,600 1,935 Climbing Minneapolis Center
Sun 07:02:38 PM 43.9683 -91.5986 121° Southeast 491 565 32,300 1,171 Climbing Minneapolis Center
Sun 07:03:39 PM 43.8950 -91.4464 124° Southeast 483 556 33,000 341 Climbing Minneapolis Center
Sun 07:04:41 PM 43.8022 -91.3156 134° Southeast 480 552 33,000  Level Minneapolis Center
Sun 07:05:43 PM 43.7067 -91.1850 135° Southeast 483 556 33,000  Level Minneapolis Center
Sun 07:06:44 PM 43.5944 -91.0286 135° Southeast 481 554 33,000  Level Minneapolis Center
Sun 07:07:46 PM 43.5025 -90.9003 135° Southeast 476 548 33,000  Level Minneapolis Center
Sun 07:08:48 PM 43.4092 -90.7714 135° Southeast 477 549 33,000  Level Minneapolis Center
Sun 07:09:50 PM 43.3156 -90.6431 135° Southeast 477 549 33,000  Level Minneapolis Center
Sun 07:10:52 PM 43.2228 -90.5158 135° Southeast 479 551 33,000  Level Chicago Center
Sun 07:11:54 PM 43.1294 -90.3894 135° Southeast 476 548 33,000  Level Chicago Center
Sun 07:12:56 PM 43.0181 -90.2381 135° Southeast 473 544 33,000  Level Chicago Center
Sun 07:13:58 PM 42.9236 -90.1106 135° Southeast 478 550 33,000  Level Chicago Center
Sun 07:15:00 PM 42.8297 -89.9844 135° Southeast 479 551 33,000  Level Chicago Center
Sun 07:16:02 PM 42.7267 -89.8469 136° Southeast 477 549 33,000  Level Chicago Center
Sun 07:17:04 PM 42.6314 -89.7222 136° Southeast 475 547 33,000  Level Chicago Center
Sun 07:18:06 PM 42.5364 -89.5956 135° Southeast 478 550 33,000  Level Chicago Center
Sun 07:19:08 PM 42.4247 -89.4497 136° Southeast 479 551 33,000  Level Chicago Center
Sun 07:20:10 PM 42.3297 -89.3261 136° Southeast 476 548 33,000  Level Chicago Center
Sun 07:21:12 PM 42.2344 -89.2017 136° Southeast 478 550 33,000  Level Chicago Center
Sun 07:22:14 PM 42.1389 -89.0761 136° Southeast 479 551 33,000  Level Chicago Center
Sun 07:23:17 PM 42.0492 -88.9589 136° Southeast 479 551 33,000  Level Chicago Center
Sun 07:24:19 PM 41.9358 -88.8131 136° Southeast 474 545 33,000  Level Chicago Center
Sun 07:25:21 PM 41.8414 -88.6922 136° Southeast 472 543 33,000  Level Chicago Center
Sun 07:26:23 PM 41.7469 -88.5706 136° Southeast 474 545 33,000 -48 Level Chicago Center
Sun 07:27:25 PM 41.6511 -88.4497 137° Southeast 477 549 32,900 -484 Descending Chicago Center
Sun 07:28:27 PM 41.5556 -88.3297 137° Southeast 477 549 32,000 -1,113 Descending Chicago Center
Sun 07:29:29 PM 41.4244 -88.2214 148° Southeast 472 543 30,600 -1,161 Descending Chicago Center
Sun 07:30:31 PM 41.3153 -88.1350 149° Southeast 473 544 29,600 -774 Descending Chicago Center
Sun 07:31:33 PM 41.2047 -88.0464 149° Southeast 476 548 29,000 -290 Descending Chicago Center
Sun 07:32:35 PM 41.0706 -87.9400 149° Southeast 474 545 29,000 -581 Level Chicago Center
Sun 07:33:37 PM 40.9578 -87.8511 149° Southeast 474 545 27,800 -1,210 Descending Chicago Center
Sun 07:34:39 PM 40.8431 -87.7608 149° Southeast 482 555 26,500 -1,403 Descending Chicago Center
Sun 07:35:41 PM 40.7281 -87.6689 149° Southeast 486 559 24,900 -1,597 Descending Chicago Center
Sun 07:36:43 PM 40.6253 -87.5550 140° Southeast 487 560 23,200 -1,645 Descending Chicago Center
Sun 07:37:45 PM 40.5192 -87.3928 131° Southeast 490 564 21,500 -1,548 Descending Chicago Center
Sun 07:38:47 PM 40.4311 -87.2614 131° Southeast 475 547 20,000 -1,210 Descending Chicago Center
Sun 07:39:49 PM 40.3461 -87.1386 132° Southeast 450 518 19,000 -1,645 Descending Chicago Center
Sun 07:40:51 PM 40.2631 -87.0194 132° Southeast 440 506 16,600 -2,565 Descending Chicago Center
Sun 07:41:53 PM 40.1833 -86.9022 132° Southeast 429 494 13,700 -1,742 Descending Chicago Center
Sun 07:42:55 PM 40.1228 -86.7756 122° Southeast 411 473 13,000 -484 Descending Chicago Center
Sun 07:43:57 PM 40.0783 -86.6450 114° Southeast 392 451 12,700 -968 Descending Chicago Center
Sun 07:44:59 PM 40.0356 -86.5225 114° Southeast 371 427 11,000 -1,500 Descending Chicago Center
Sun 07:46:01 PM 39.9922 -86.4000 115° Southeast 314 361 9,600 -1,443 Descending Chicago Center
Sun 07:46:18 PM 39.9833 -86.3667 109° East 292 336 9,100 -1,548 Descending Indianapolis TRACON
Sun 07:47:03 PM 39.9581 -86.3006 116° Southeast 300 345 8,000 -1,207 Descending Chicago Center
Sun 07:49:07 PM 39.9200 -86.1350 107° East 229 264 5,700 -1,290 Descending Chicago Center
Sun 07:50:09 PM 39.8944 -86.0725 118° Southeast 221 254 4,000 -816 Descending Chicago Center
Sun 07:51:12 PM 39.8500 -86.1167 217° Southwest 170 196 4,000 -326 Level Indianapolis TRACON
Sun 07:52:18 PM 39.8167 -86.1667 229° Southwest 169 194 3,300 -636 Descending Indianapolis TRACON

Login

Don't have an account? Register now (free) for customized features, flight alerts, and more!